Whitefish, Canada
Current Conditions -  °F | °C
As of 8:00 AM on Wednesday 26 Nov 2014 (Local Time) from CYSB Reporting Station
Few Clouds Few Clouds  
Wind Chill: -12°   Ceiling: Unl
Heat Index: -8°   Visibility: 20mi
Dew Point: -11°   Wind: 5mph
Humidity: 79%   Direction: 30°NNE
Pressure: 30.18"   Gusts: NA
Location:  46.37°N, 81.32°W
Report Text: CYSB 261300Z 03004KT 20SM FEW026 M08/M11 A3018 RMK SC2 SLP244
Loading
Personal Weather Stations






























Interactive Weather Map New forecast layout! Learn more

10-Day Weather Forecast

Advertisements
Track Severe Weather on mobile